createdAt,value
2023-03-01T00:01:23.127Z,102180.06
2023-03-01T00:04:55.100Z,102173.09
2023-03-01T00:08:00.134Z,102169.72
2023-03-01T00:11:16.241Z,102179.78
2023-03-01T00:14:19.473Z,102158.56
2023-03-01T00:17:22.559Z,102160.28
2023-03-01T00:20:26.093Z,102156.13
2023-03-01T00:23:35.293Z,102157.81
2023-03-01T00:26:38.641Z,102152.63
2023-03-01T00:29:41.521Z,102149.94
2023-03-01T00:32:44.774Z,102161.63
2023-03-01T00:35:47.350Z,102145.78
2023-03-01T00:38:50.397Z,102155.38
2023-03-01T00:41:53.091Z,102147.13
2023-03-01T00:44:56.402Z,102153.31
2023-03-01T00:47:59.081Z,102145.53
2023-03-01T00:51:13.657Z,102141.38
2023-03-01T00:54:16.299Z,102145.78
2023-03-01T00:57:19.455Z,102142.38
2023-03-01T01:00:22.411Z,102142.91
2023-03-01T01:03:28.811Z,102138.50
2023-03-01T01:06:34.617Z,102140.31
2023-03-01T01:09:38.034Z,102146.88
2023-03-01T01:12:40.673Z,102132.03
2023-03-01T01:15:43.755Z,102143.47
2023-03-01T01:18:47.410Z,102135.78
2023-03-01T01:21:54.536Z,102132.16
2023-03-01T01:24:57.500Z,102125.38
2023-03-01T01:28:04.522Z,102124.72
2023-03-01T01:31:08.064Z,102119.03
2023-03-01T01:34:16.778Z,102119.97
2023-03-01T01:37:19.721Z,102118.38
2023-03-01T01:40:22.622Z,102118.06
2023-03-01T01:43:32.245Z,102106.03
2023-03-01T01:46:39.418Z,102106.28
2023-03-01T01:49:46.016Z,102104.72
2023-03-01T01:52:50.333Z,102110.72
2023-03-01T01:55:59.217Z,102087.53
2023-03-01T01:59:03.465Z,102099.38
2023-03-01T02:02:06.805Z,102100.44
2023-03-01T02:05:19.666Z,102096.13
2023-03-01T02:08:25.313Z,102094.88
2023-03-01T02:11:29.320Z,102091.59
2023-03-01T02:14:32.056Z,102092.81
2023-03-01T02:17:35.310Z,102080.47
2023-03-01T02:20:54.502Z,102082.63
2023-03-01T02:24:02.013Z,102086.38
2023-03-01T02:27:05.027Z,102076.47
2023-03-01T02:30:09.667Z,102072.31
2023-03-01T02:33:12.323Z,102074.44
2023-03-01T02:36:42.468Z,102082.59
2023-03-01T02:39:49.664Z,102078.59
2023-03-01T02:42:56.746Z,102078.84
2023-03-01T02:46:05.630Z,102071.19
2023-03-01T02:49:38.820Z,102060.00
2023-03-01T02:52:53.949Z,102062.00
2023-03-01T02:55:57.004Z,102054.75
2023-03-01T02:59:01.904Z,102053.81
2023-03-01T03:02:06.619Z,102053.16
2023-03-01T03:05:23.637Z,102045.78
2023-03-01T03:08:29.772Z,102044.25
2023-03-01T03:11:33.658Z,102043.50
2023-03-01T03:14:36.904Z,102042.03
2023-03-01T03:17:43.062Z,102042.69
2023-03-01T03:20:46.953Z,102027.81
2023-03-01T03:23:49.444Z,102031.34
2023-03-01T03:26:52.471Z,102050.25
2023-03-01T03:29:54.906Z,102046.56
2023-03-01T03:32:58.871Z,102044.19
2023-03-01T03:36:01.443Z,102045.66
2023-03-01T03:39:04.420Z,102042.88
2023-03-01T03:42:06.962Z,102038.84
2023-03-01T03:45:10.166Z,102024.00
2023-03-01T03:48:13.077Z,102013.25
2023-03-01T03:51:18.021Z,102015.63
2023-03-01T03:54:20.707Z,102015.75
2023-03-01T03:57:23.877Z,101996.28
2023-03-01T04:00:26.788Z,102005.78
2023-03-01T04:03:31.246Z,102009.66
2023-03-01T04:06:33.951Z,102012.59
2023-03-01T04:09:37.723Z,102022.09
2023-03-01T04:12:49.669Z,102022.53
2023-03-01T04:15:58.789Z,102027.22
2023-03-01T04:19:53.757Z,102009.56
2023-03-01T07:19:54.479Z,101996.09
2023-03-01T07:23:01.262Z,101991.03
2023-03-01T07:26:04.365Z,101984.03
2023-03-01T07:29:09.116Z,101985.00
2023-03-01T07:32:12.973Z,101985.19
2023-03-01T07:35:16.349Z,101984.44
2023-03-01T07:38:18.962Z,101997.22
2023-03-01T07:41:21.989Z,102001.06
2023-03-01T07:44:24.844Z,101995.84
2023-03-01T07:47:27.807Z,101996.84
2023-03-01T07:50:30.678Z,101998.97
2023-03-01T07:53:35.381Z,101987.91
2023-03-01T07:56:38.070Z,101997.53
2023-03-01T07:59:41.099Z,101983.31
2023-03-01T08:02:43.717Z,101985.22
2023-03-01T08:05:46.736Z,101975.69
2023-03-01T08:08:49.384Z,101979.88
2023-03-01T08:11:52.420Z,101971.78
2023-03-01T08:14:55.674Z,101960.72
2023-03-01T08:17:58.688Z,101982.50
2023-03-01T08:21:12.170Z,101974.38
2023-03-01T08:24:15.326Z,101984.84
2023-03-01T08:27:18.296Z,101975.00
2023-03-01T08:30:21.788Z,101963.53
2023-03-01T08:33:24.457Z,101972.00
2023-03-01T08:36:34.201Z,101966.34
2023-03-01T08:39:36.913Z,101995.69
2023-03-01T08:42:39.915Z,101959.59
2023-03-01T08:45:42.643Z,101990.34
2023-03-01T08:48:46.076Z,101966.72
2023-03-01T08:51:49.492Z,101974.63
2023-03-01T08:54:52.526Z,101983.03
2023-03-01T08:57:55.102Z,101963.47
2023-03-01T09:00:58.144Z,101981.06
2023-03-01T09:04:01.170Z,101961.84
2023-03-01T09:07:04.137Z,101969.94
2023-03-01T09:10:07.153Z,101972.09
2023-03-01T09:13:10.583Z,101969.84
2023-03-01T09:16:15.238Z,101966.88
2023-03-01T09:19:18.207Z,101964.09
2023-03-01T09:22:20.779Z,101954.78
2023-03-01T09:25:24.200Z,101955.78
2023-03-01T09:28:30.203Z,101957.41
2023-03-01T09:31:33.490Z,101955.41
2023-03-01T09:34:56.404Z,101942.84
2023-03-01T09:37:59.286Z,101946.69
2023-03-01T09:41:02.617Z,101942.53
2023-03-01T09:44:58.862Z,101948.09
2023-03-01T09:48:07.918Z,101928.41
2023-03-01T09:51:33.261Z,101921.41
2023-03-01T09:54:39.018Z,101929.84
2023-03-01T09:57:50.747Z,101917.34
2023-03-01T10:00:54.212Z,101921.53
2023-03-01T10:04:25.110Z,101925.38
2023-03-01T10:07:54.864Z,101917.28
2023-03-01T10:11:02.489Z,101911.72
2023-03-01T10:14:37.443Z,101903.94
2023-03-01T10:17:48.162Z,101891.94
2023-03-01T10:21:42.778Z,101902.09
2023-03-01T10:24:48.050Z,101886.44
2023-03-01T10:28:37.212Z,101898.03
2023-03-01T12:29:12.110Z,101825.00
2023-03-01T12:35:17.474Z,101815.72
2023-03-01T12:38:24.727Z,101813.84
2023-03-01T12:41:49.534Z,101808.25
2023-03-01T12:45:23.457Z,101804.34
2023-03-01T12:49:15.067Z,101804.63
2023-03-01T12:52:20.675Z,101800.13
2023-03-01T12:55:41.944Z,101798.97
2023-03-01T12:59:03.710Z,101798.16
2023-03-01T13:02:33.324Z,101797.06
2023-03-01T13:05:45.721Z,101795.50
2023-03-01T13:09:08.154Z,101798.06
2023-03-01T13:12:51.911Z,101802.78
2023-03-01T13:15:55.399Z,101806.88
2023-03-01T13:19:15.907Z,101800.16
2023-03-01T13:22:31.118Z,101796.34
2023-03-01T13:25:42.509Z,101788.78
2023-03-01T13:28:45.856Z,101795.53
2023-03-01T13:31:48.917Z,101793.94
2023-03-01T13:34:53.565Z,101785.72
2023-03-01T13:38:34.570Z,101786.97
2023-03-01T13:41:40.270Z,101779.06
2023-03-01T13:44:44.607Z,101777.78
2023-03-01T13:47:50.607Z,101779.56
2023-03-01T13:50:57.559Z,101778.91
2023-03-01T13:54:00.633Z,101780.06
2023-03-01T13:57:03.908Z,101774.03
2023-03-01T14:00:25.520Z,101770.75
2023-03-01T14:03:43.054Z,101765.38
2023-03-01T14:06:45.588Z,101769.44
2023-03-01T14:09:54.127Z,101757.53
2023-03-01T14:13:16.175Z,101762.28
2023-03-01T14:16:38.087Z,101754.72
2023-03-01T14:19:49.609Z,101759.13
2023-03-01T14:22:55.701Z,101754.59
2023-03-01T14:25:59.169Z,101755.22
2023-03-01T14:29:02.963Z,101748.38
2023-03-01T14:32:11.608Z,101746.34
2023-03-01T14:35:26.832Z,101751.13
2023-03-01T14:38:38.368Z,101735.88
2023-03-01T14:41:41.432Z,101736.06
2023-03-01T14:44:47.581Z,101728.06
2023-03-01T14:47:50.455Z,101723.84
2023-03-01T14:50:53.157Z,101729.03
2023-03-01T14:54:06.103Z,101728.00
2023-03-01T14:57:19.236Z,101722.38
2023-03-01T15:00:36.083Z,101724.84
2023-03-01T15:03:44.642Z,101723.06
2023-03-01T15:06:48.952Z,101723.84
2023-03-01T15:09:51.644Z,101720.03
2023-03-01T15:12:55.057Z,101726.31
2023-03-01T15:16:08.323Z,101728.00
2023-03-01T15:19:18.157Z,101723.59
2023-03-01T15:22:22.107Z,101715.63
2023-03-01T15:25:29.797Z,101717.69
2023-03-01T15:28:36.364Z,101707.03
2023-03-01T15:31:40.184Z,101698.88
2023-03-01T15:34:42.778Z,101699.59
2023-03-01T15:37:51.243Z,101696.56
2023-03-01T15:40:54.711Z,101699.84
2023-03-01T15:44:02.179Z,101702.00
2023-03-01T15:47:23.658Z,101713.03
2023-03-01T15:50:29.876Z,101709.13
2023-03-01T15:53:32.999Z,101698.94
2023-03-01T15:56:36.568Z,101696.88
2023-03-01T15:59:39.825Z,101697.41
2023-03-01T16:02:44.856Z,101696.06
2023-03-01T16:05:49.560Z,101682.16
2023-03-01T16:08:52.792Z,101696.00
2023-03-01T16:11:56.786Z,101698.25
2023-03-01T16:15:20.722Z,101701.97
2023-03-01T16:18:23.747Z,101682.00
2023-03-01T16:21:27.554Z,101700.09
2023-03-01T16:24:31.539Z,101689.75
2023-03-01T16:27:35.005Z,101695.38
2023-03-01T16:30:41.123Z,101695.91
2023-03-01T16:33:50.995Z,101703.66
2023-03-01T16:36:55.711Z,101692.28
2023-03-01T16:39:59.184Z,101698.25
2023-03-01T16:43:02.546Z,101676.09
2023-03-01T16:46:26.786Z,101685.91
2023-03-01T16:49:30.331Z,101686.91
2023-03-01T16:52:35.447Z,101710.34
2023-03-01T16:55:39.383Z,101697.34
2023-03-01T16:58:43.877Z,101693.00
2023-03-01T17:01:48.190Z,101699.88
2023-03-01T17:04:54.752Z,101700.16
2023-03-01T17:07:58.564Z,101690.00
2023-03-01T17:11:12.668Z,101716.16
2023-03-01T17:14:18.382Z,101703.50
2023-03-01T17:17:22.143Z,101699.34
2023-03-01T17:20:25.493Z,101707.78
2023-03-01T17:23:29.993Z,101732.63
2023-03-01T17:26:35.663Z,101727.03
2023-03-01T17:29:43.732Z,101714.75
2023-03-01T17:32:47.325Z,101719.94
2023-03-01T17:35:52.555Z,101711.34
2023-03-01T17:38:55.724Z,101730.88
2023-03-01T17:42:01.813Z,101719.53
2023-03-01T17:45:07.932Z,101708.72
2023-03-01T17:48:11.509Z,101720.78
2023-03-01T17:51:14.909Z,101737.94
2023-03-01T17:54:18.292Z,101723.66
2023-03-01T17:57:22.092Z,101717.78
2023-03-01T18:00:25.932Z,101717.47
2023-03-01T18:03:29.764Z,101719.84
2023-03-01T18:06:33.479Z,101694.75
2023-03-01T18:09:36.770Z,101718.47
2023-03-01T18:12:40.861Z,101706.31
2023-03-01T18:15:45.668Z,101712.44
2023-03-01T18:18:54.154Z,101720.09
2023-03-01T18:21:57.239Z,101700.94
2023-03-01T18:25:07.780Z,101712.16
2023-03-01T18:28:11.408Z,101700.69
2023-03-01T18:31:18.822Z,101691.63
2023-03-01T18:34:23.282Z,101712.66
2023-03-01T18:37:26.862Z,101703.06
2023-03-01T18:40:31.182Z,101717.41
2023-03-01T18:43:35.978Z,101714.63
2023-03-01T18:46:42.337Z,101698.44
2023-03-01T18:49:47.547Z,101695.63
2023-03-01T18:52:51.557Z,101703.81
2023-03-01T18:56:00.962Z,101708.06
2023-03-01T18:59:05.686Z,101718.06
2023-03-01T19:02:19.739Z,101714.53
2023-03-01T19:05:24.923Z,101731.16
2023-03-01T19:08:31.424Z,101735.34
2023-03-01T19:11:37.266Z,101743.84
2023-03-01T19:14:43.196Z,101740.88
2023-03-01T19:17:47.113Z,101745.72
2023-03-01T19:21:04.405Z,101755.72
2023-03-01T19:24:10.536Z,101733.44
2023-03-01T19:27:21.902Z,101733.09
2023-03-01T19:31:35.450Z,101747.38
2023-03-01T20:05:30.572Z,101767.91
2023-03-01T20:13:22.377Z,101752.59
2023-03-01T20:16:27.924Z,101749.88
2023-03-01T20:19:33.536Z,101754.03
2023-03-01T20:22:39.306Z,101772.72
2023-03-01T20:25:52.651Z,101752.78
2023-03-01T20:28:58.408Z,101763.06
2023-03-01T20:32:03.748Z,101778.03
2023-03-01T20:35:08.636Z,101757.56
2023-03-01T20:38:13.462Z,101761.44
2023-03-01T20:41:17.503Z,101757.56
2023-03-01T20:44:23.500Z,101755.78
2023-03-01T20:47:28.476Z,101750.81
2023-03-01T20:50:40.705Z,101779.13
2023-03-01T20:53:50.733Z,101767.03
2023-03-01T20:56:55.380Z,101770.81
2023-03-01T20:59:58.189Z,101782.44
2023-03-01T21:03:04.497Z,101773.00
2023-03-01T21:06:08.749Z,101787.22
2023-03-01T21:09:14.906Z,101772.44
2023-03-01T21:12:19.027Z,101753.16
2023-03-01T21:15:29.039Z,101758.84
2023-03-01T21:18:34.187Z,101745.47
2023-03-01T21:21:37.445Z,101736.41
2023-03-01T21:24:40.413Z,101731.31
2023-03-01T21:27:44.141Z,101752.53
2023-03-01T21:30:47.543Z,101754.31
2023-03-01T21:33:53.598Z,101724.84
2023-03-01T21:36:56.300Z,101739.63
2023-03-01T21:40:01.626Z,101751.69
